createdAt,value
2023-05-19T00:00:10.927Z,5.27
2023-05-19T00:01:10.931Z,5.63
2023-05-19T00:02:10.974Z,5.47
2023-05-19T00:03:11.045Z,6.13
2023-05-19T00:04:10.961Z,6.12
2023-05-19T00:05:10.966Z,5.34
2023-05-19T00:06:11.024Z,5.71
2023-05-19T00:07:10.882Z,6.08
2023-05-19T00:08:10.976Z,6.95
2023-05-19T00:09:10.904Z,5.86
2023-05-19T00:10:10.895Z,5.81
2023-05-19T00:11:10.875Z,5.02
2023-05-19T00:12:10.908Z,5.83
2023-05-19T00:13:10.869Z,5.95
2023-05-19T00:14:10.908Z,6.63
2023-05-19T00:15:10.828Z,5.54
2023-05-19T00:16:10.847Z,4.94
2023-05-19T00:17:10.803Z,5.35
2023-05-19T00:18:10.956Z,5.77
2023-05-19T00:19:10.927Z,5.03
2023-05-19T00:20:10.894Z,5.88
2023-05-19T00:21:10.960Z,5.51
2023-05-19T00:22:10.866Z,5.51
2023-05-19T00:23:11.308Z,5.77
2023-05-19T00:25:30.953Z,5.76
2023-05-19T00:27:50.427Z,5.79
2023-05-19T00:32:09.201Z,7.34
2023-05-19T00:33:09.041Z,6.15
2023-05-19T00:34:08.912Z,6.88
2023-05-19T00:35:09.517Z,6.47
2023-05-19T00:36:08.930Z,6.50
2023-05-19T00:37:09.543Z,5.73
2023-05-19T00:38:08.928Z,5.55
2023-05-19T00:39:08.863Z,6.06
2023-05-19T00:40:08.944Z,5.80
2023-05-19T00:41:08.887Z,5.98
2023-05-19T00:42:09.521Z,6.24
2023-05-19T00:43:08.951Z,5.07
2023-05-19T00:44:09.376Z,6.71
2023-05-19T00:45:08.865Z,6.23
2023-05-19T00:46:08.919Z,6.19
2023-05-19T00:47:08.873Z,6.35
2023-05-19T00:48:08.821Z,6.34
2023-05-19T00:49:08.791Z,5.58
2023-05-19T00:50:08.753Z,6.38
2023-05-19T00:51:09.521Z,5.81
2023-05-19T00:52:08.755Z,6.15
2023-05-19T00:53:08.798Z,5.68
2023-05-19T00:54:08.743Z,5.59
2023-05-19T00:55:08.740Z,6.25
2023-05-19T00:58:18.333Z,2.56
2023-05-19T01:06:07.014Z,1.81
2023-05-19T01:07:06.637Z,6.66
2023-05-19T01:08:06.660Z,7.76
2023-05-19T01:09:06.661Z,7.04
2023-05-19T01:10:06.664Z,6.69
2023-05-19T01:12:26.915Z,5.36
2023-05-19T01:18:13.879Z,1.37
2023-05-19T01:19:01.468Z,6.80
2023-05-19T01:20:01.417Z,6.15
2023-05-19T01:21:01.421Z,6.70
2023-05-19T01:22:01.524Z,6.18
2023-05-19T01:23:03.205Z,7.06
2023-05-19T01:24:01.622Z,6.28
2023-05-19T01:26:20.915Z,6.63
2023-05-19T01:30:30.442Z,3.23
2023-05-19T01:31:30.229Z,6.55
2023-05-19T01:34:25.132Z,5.92
2023-05-19T01:35:25.378Z,6.16
2023-05-19T01:36:31.018Z,6.12
2023-05-19T01:39:02.023Z,4.38
2023-05-19T01:43:21.414Z,7.19
2023-05-19T01:46:29.634Z,0.00
2023-05-19T01:48:49.613Z,7.90
2023-05-19T01:49:48.738Z,7.21
2023-05-19T01:50:49.694Z,6.39
2023-05-19T01:51:48.950Z,6.56
2023-05-19T01:52:48.638Z,6.70
2023-05-19T01:55:47.507Z,7.55
2023-05-19T01:58:06.406Z,6.95
2023-05-19T01:59:06.401Z,7.01
2023-05-19T02:00:06.335Z,6.60
2023-05-19T02:01:06.407Z,6.60
2023-05-19T02:02:06.383Z,6.17
2023-05-19T02:03:06.347Z,6.57
2023-05-19T02:04:06.370Z,6.94
2023-05-19T02:05:06.935Z,6.60
2023-05-19T02:07:25.981Z,6.04
2023-05-19T02:10:52.925Z,0.00
2023-05-19T02:11:52.174Z,6.55
2023-05-19T02:12:52.150Z,6.23
2023-05-19T02:16:05.337Z,5.67
2023-05-19T02:16:52.243Z,6.94
2023-05-19T02:17:52.434Z,5.48
2023-05-19T02:18:52.329Z,7.29
2023-05-19T02:19:52.265Z,6.11
2023-05-19T02:20:52.340Z,6.97
2023-05-19T02:21:52.280Z,7.22
2023-05-19T02:22:52.403Z,6.48
2023-05-19T02:23:52.252Z,6.34
2023-05-19T02:24:52.848Z,6.28
2023-05-19T02:25:52.300Z,6.83
2023-05-19T02:26:52.198Z,6.71
2023-05-19T02:27:53.195Z,5.47
2023-05-19T02:28:52.181Z,6.14
2023-05-19T02:29:52.203Z,6.28
2023-05-19T02:30:52.218Z,6.28
2023-05-19T02:31:52.212Z,6.98
2023-05-19T02:32:52.153Z,5.79
2023-05-19T02:33:52.150Z,6.57
2023-05-19T02:34:52.154Z,7.02
2023-05-19T02:35:52.176Z,6.13
2023-05-19T02:36:53.167Z,6.56
2023-05-19T02:37:52.917Z,6.33
2023-05-19T02:38:52.169Z,6.35
2023-05-19T02:39:52.777Z,6.21
2023-05-19T02:42:12.878Z,5.68
2023-05-19T02:44:32.527Z,6.23
2023-05-19T02:55:01.505Z,6.69
2023-05-19T03:05:07.998Z,8.15
2023-05-19T03:06:07.831Z,7.20
2023-05-19T03:07:07.785Z,7.25
2023-05-19T03:08:07.674Z,6.82
2023-05-19T03:09:07.676Z,6.71
2023-05-19T03:10:07.669Z,7.33
2023-05-19T03:11:07.684Z,7.09
2023-05-19T03:12:07.818Z,6.19
2023-05-19T03:13:07.638Z,7.35
2023-05-19T03:14:07.643Z,6.97
2023-05-19T03:15:07.637Z,6.41
2023-05-19T03:16:07.698Z,6.42
2023-05-19T03:17:07.772Z,6.67
2023-05-19T03:18:07.639Z,6.46
2023-05-19T03:19:07.592Z,6.46
2023-05-19T03:20:07.615Z,6.20
2023-05-19T03:21:07.635Z,7.15
2023-05-19T03:22:07.737Z,5.38
2023-05-19T03:23:07.741Z,5.37
2023-05-19T03:28:52.650Z,1.97
2023-05-19T03:32:02.122Z,4.86
2023-05-19T03:34:21.479Z,6.26
2023-05-19T03:35:21.549Z,6.38
2023-05-19T03:36:21.626Z,7.44
2023-05-19T03:37:21.446Z,7.02
2023-05-19T03:38:21.357Z,7.06
2023-05-19T03:39:21.410Z,6.27
2023-05-19T03:40:21.327Z,6.11
2023-05-19T03:41:21.378Z,6.17
2023-05-19T03:42:21.331Z,6.51
2023-05-19T03:43:21.395Z,6.74
2023-05-19T03:44:21.385Z,5.92
2023-05-19T03:45:21.311Z,6.69
2023-05-19T03:46:21.559Z,6.21
2023-05-19T03:47:21.315Z,6.35
2023-05-19T03:48:22.026Z,7.29
2023-05-19T03:49:21.292Z,6.67
2023-05-19T03:50:21.289Z,5.87
2023-05-19T03:51:21.332Z,6.37
2023-05-19T03:52:21.299Z,7.12
2023-05-19T03:53:21.307Z,5.89
2023-05-19T03:54:21.295Z,6.62
2023-05-19T03:55:21.313Z,6.90
2023-05-19T03:56:21.240Z,6.38
2023-05-19T03:57:22.292Z,6.13
2023-05-19T03:58:21.248Z,6.76
2023-05-19T03:59:21.220Z,6.54
2023-05-19T04:00:21.244Z,7.20
2023-05-19T04:01:21.220Z,6.86
2023-05-19T04:02:22.154Z,6.69
2023-05-19T04:03:21.420Z,7.28
2023-05-19T04:04:21.233Z,6.29
2023-05-19T04:05:21.202Z,7.25
2023-05-19T04:06:21.213Z,6.47
2023-05-19T04:07:21.149Z,6.49
2023-05-19T04:08:21.181Z,7.28
2023-05-19T04:09:21.158Z,7.15
2023-05-19T04:10:21.126Z,6.93
2023-05-19T04:11:21.125Z,6.90
2023-05-19T04:12:21.236Z,6.43
2023-05-19T04:13:21.209Z,6.97
2023-05-19T04:14:21.301Z,6.92
2023-05-19T04:15:21.308Z,6.86
2023-05-19T04:16:21.491Z,6.87
2023-05-19T04:17:21.459Z,6.89
2023-05-19T04:18:21.435Z,6.35
2023-05-19T04:19:21.549Z,7.56
2023-05-19T04:20:22.239Z,6.18
2023-05-19T04:21:21.699Z,6.60
2023-05-19T04:22:21.606Z,7.27
2023-05-19T04:23:21.614Z,6.65
2023-05-19T04:24:21.668Z,6.72
2023-05-19T04:25:21.738Z,6.77
2023-05-19T04:26:21.738Z,7.18
2023-05-19T04:27:21.783Z,7.31
2023-05-19T04:28:21.811Z,6.47
2023-05-19T04:29:21.894Z,7.83
2023-05-19T04:30:21.831Z,7.42
2023-05-19T04:31:21.972Z,6.75
2023-05-19T04:32:21.955Z,7.04
2023-05-19T04:33:21.982Z,7.02
2023-05-19T04:34:22.025Z,7.09
2023-05-19T04:35:22.092Z,7.33
2023-05-19T04:36:22.120Z,7.12
2023-05-19T04:41:32.661Z,7.79
2023-05-19T04:46:42.911Z,7.81
2023-05-19T04:49:54.082Z,0.47
2023-05-19T04:55:03.567Z,4.80
2023-05-19T04:56:03.349Z,8.27
2023-05-19T04:57:03.646Z,8.90
2023-05-19T05:02:46.895Z,4.67
2023-05-19T05:03:46.804Z,8.78
2023-05-19T05:04:52.341Z,9.07
2023-05-19T05:05:47.328Z,8.24
2023-05-19T05:12:08.947Z,8.25
2023-05-19T05:13:11.142Z,6.63
2023-05-19T05:15:28.390Z,7.71
2023-05-19T05:22:06.228Z,8.51
2023-05-19T05:23:06.020Z,8.28
2023-05-19T05:24:06.484Z,8.53
2023-05-19T05:27:21.305Z,4.10
2023-05-19T05:28:11.392Z,8.63
2023-05-19T05:29:11.859Z,9.17
2023-05-19T05:32:22.711Z,3.75
2023-05-19T05:34:42.516Z,7.82
2023-05-19T05:40:09.159Z,2.62
2023-05-19T05:41:08.915Z,8.44
2023-05-19T05:46:53.935Z,1.19
2023-05-19T05:49:28.315Z,3.73
2023-05-19T05:52:16.945Z,4.26
2023-05-19T05:57:53.843Z,2.62
2023-05-19T05:58:40.468Z,7.55
2023-05-19T05:59:40.466Z,7.43
2023-05-19T06:00:41.940Z,8.10
2023-05-19T06:03:01.063Z,7.69
2023-05-19T06:07:22.163Z,5.64
2023-05-19T06:08:12.031Z,8.11
2023-05-19T06:10:32.659Z,7.84
2023-05-19T06:13:31.016Z,2.04
2023-05-19T06:17:02.999Z,1.19
2023-05-19T06:18:02.602Z,8.00
2023-05-19T06:19:02.843Z,7.37
2023-05-19T06:20:02.571Z,7.78
2023-05-19T06:25:16.309Z,7.27
2023-05-19T06:26:16.072Z,7.70
2023-05-19T06:29:44.581Z,2.62
2023-05-19T06:30:31.313Z,6.62
2023-05-19T06:35:36.827Z,3.61
2023-05-19T06:40:37.588Z,7.59
2023-05-19T06:41:37.193Z,7.63
2023-05-19T06:42:37.039Z,7.16
2023-05-19T06:47:44.667Z,6.26
2023-05-19T06:52:04.351Z,7.44
2023-05-19T06:53:02.992Z,8.27
2023-05-19T06:54:03.216Z,7.47
2023-05-19T06:56:37.801Z,3.68
2023-05-19T06:57:24.850Z,7.06
2023-05-19T06:58:24.858Z,6.68
2023-05-19T06:59:24.861Z,7.26
2023-05-19T07:00:24.868Z,6.83
2023-05-19T07:01:25.107Z,6.26
2023-05-19T07:02:25.076Z,7.39
2023-05-19T07:03:24.997Z,6.41
2023-05-19T07:04:24.847Z,6.39
2023-05-19T07:05:24.887Z,5.82
2023-05-19T07:06:24.816Z,6.93
2023-05-19T07:07:24.814Z,7.16
2023-05-19T07:08:24.777Z,6.50
2023-05-19T07:09:24.721Z,7.04
2023-05-19T07:10:24.827Z,7.30
2023-05-19T07:11:24.800Z,6.68
2023-05-19T07:12:24.766Z,6.73
2023-05-19T07:13:27.232Z,6.53
2023-05-19T07:26:16.536Z,1.99
2023-05-19T07:27:01.775Z,6.69
2023-05-19T07:29:21.364Z,7.28
2023-05-19T07:30:21.413Z,6.19
2023-05-19T07:31:21.527Z,6.52
2023-05-19T07:32:21.584Z,6.16
2023-05-19T07:36:43.244Z,4.24
2023-05-19T07:37:42.528Z,6.87
2023-05-19T07:38:42.605Z,6.70
2023-05-19T07:39:43.134Z,6.83
2023-05-19T07:40:42.995Z,5.46
2023-05-19T07:41:42.624Z,6.52
2023-05-19T07:42:42.451Z,6.07
2023-05-19T07:43:42.482Z,5.89
2023-05-19T07:44:42.465Z,6.65
2023-05-19T07:45:42.514Z,6.28
2023-05-19T07:46:42.501Z,6.70
2023-05-19T07:47:43.470Z,6.01
2023-05-19T07:50:30.829Z,1.19
2023-05-19T07:52:50.473Z,7.09
2023-05-19T07:53:50.009Z,5.61
2023-05-19T07:54:50.259Z,5.63
2023-05-19T07:55:50.206Z,5.16
2023-05-19T07:56:50.037Z,5.63
2023-05-19T07:57:50.094Z,6.03
2023-05-19T07:58:50.033Z,5.33
2023-05-19T07:59:49.956Z,5.52
2023-05-19T08:00:50.042Z,5.80
2023-05-19T08:01:50.003Z,5.88
2023-05-19T08:02:50.075Z,5.28
2023-05-19T08:03:50.169Z,5.14
2023-05-19T08:04:50.092Z,5.60
2023-05-19T08:05:50.059Z,5.43
2023-05-19T08:06:49.901Z,5.45
2023-05-19T08:07:49.907Z,5.39
2023-05-19T08:08:49.905Z,5.62
2023-05-19T08:09:49.896Z,5.82
2023-05-19T08:10:50.194Z,5.52
2023-05-19T08:11:49.898Z,5.89
2023-05-19T08:12:49.949Z,5.71
2023-05-19T08:13:49.928Z,5.30
2023-05-19T08:14:49.929Z,6.41
2023-05-19T08:15:50.001Z,5.71
2023-05-19T08:16:50.759Z,6.39
2023-05-19T08:17:49.892Z,7.01
2023-05-19T08:18:50.779Z,5.65
2023-05-19T08:19:50.750Z,6.02
2023-05-19T08:20:49.883Z,6.09
2023-05-19T08:21:50.817Z,6.09
2023-05-19T08:22:49.792Z,5.26
2023-05-19T08:23:49.822Z,5.33
2023-05-19T08:24:52.832Z,5.60
2023-05-19T08:25:49.788Z,5.49
2023-05-19T08:26:49.772Z,6.39
2023-05-19T08:27:50.759Z,4.86
2023-05-19T08:28:50.393Z,5.34
2023-05-19T08:31:09.129Z,5.43
2023-05-19T08:35:44.548Z,1.19
2023-05-19T08:38:19.309Z,1.19
2023-05-19T08:39:32.915Z,5.44
2023-05-19T08:40:20.734Z,5.42
2023-05-19T08:44:02.438Z,0.91
2023-05-19T08:44:48.077Z,4.90
2023-05-19T08:47:43.801Z,3.72
2023-05-19T08:51:06.444Z,3.68
2023-05-19T08:52:05.428Z,5.49
2023-05-19T08:53:05.451Z,4.94
2023-05-19T08:54:05.328Z,5.30
2023-05-19T08:56:57.398Z,2.74
2023-05-19T08:59:16.623Z,5.59
2023-05-19T09:00:16.101Z,5.15
2023-05-19T09:04:07.078Z,5.52
2023-05-19T09:09:37.015Z,1.47
2023-05-19T09:10:36.064Z,4.78
2023-05-19T09:11:36.053Z,4.88
2023-05-19T09:12:36.005Z,6.08
2023-05-19T09:13:36.018Z,4.85
2023-05-19T09:14:36.151Z,4.63
2023-05-19T09:15:36.188Z,5.53
2023-05-19T09:16:36.277Z,5.50
2023-05-19T09:17:36.272Z,5.46
2023-05-19T09:18:36.249Z,4.19
2023-05-19T09:19:36.121Z,4.66
2023-05-19T09:24:33.703Z,5.11
2023-05-19T09:25:33.815Z,5.61
2023-05-19T09:26:33.656Z,5.68
2023-05-19T09:27:33.546Z,4.78
2023-05-19T09:28:33.634Z,4.79
2023-05-19T09:29:33.847Z,5.82
2023-05-19T09:30:33.573Z,5.79
2023-05-19T09:40:23.932Z,0.00
2023-05-19T09:41:13.737Z,4.81
2023-05-19T09:42:13.774Z,4.62
2023-05-19T09:43:14.422Z,5.09
2023-05-19T09:44:13.710Z,4.56
2023-05-19T09:45:14.533Z,5.00
2023-05-19T09:46:14.997Z,5.09
2023-05-19T09:47:13.688Z,5.34
2023-05-19T09:48:13.716Z,5.51
2023-05-19T09:49:13.701Z,4.71
2023-05-19T09:50:16.714Z,5.39
2023-05-19T09:56:45.644Z,3.68
2023-05-19T09:57:45.140Z,4.82
2023-05-19T09:58:44.794Z,4.06
2023-05-19T09:59:45.046Z,4.75
2023-05-19T10:02:45.599Z,4.53
2023-05-19T10:03:44.709Z,4.32
2023-05-19T10:04:44.750Z,3.70
2023-05-19T10:08:11.067Z,0.00
2023-05-19T10:09:11.136Z,5.06
2023-05-19T10:10:12.152Z,4.22
2023-05-19T10:11:11.588Z,4.18
2023-05-19T10:12:11.070Z,4.28
2023-05-19T10:13:11.481Z,3.89
2023-05-19T10:14:11.005Z,4.40
2023-05-19T10:15:11.518Z,4.24
2023-05-19T10:20:52.499Z,1.19
2023-05-19T10:21:52.319Z,5.03
2023-05-19T10:22:52.175Z,4.81
2023-05-19T10:23:52.211Z,4.37
2023-05-19T10:24:52.223Z,4.42
2023-05-19T10:25:52.234Z,3.94
2023-05-19T10:26:52.232Z,4.91
2023-05-19T10:27:52.247Z,4.20
2023-05-19T10:28:52.389Z,4.36
2023-05-19T10:29:52.742Z,4.91
2023-05-19T10:30:52.170Z,4.76
2023-05-19T10:31:52.246Z,3.71
2023-05-19T10:32:52.245Z,4.05
2023-05-19T10:33:52.200Z,4.03
2023-05-19T10:34:52.248Z,3.93
2023-05-19T10:35:52.144Z,4.52
2023-05-19T10:36:52.130Z,4.24
2023-05-19T10:37:52.121Z,4.01
2023-05-19T10:38:52.089Z,4.42
2023-05-19T10:39:52.819Z,4.75
2023-05-19T10:40:52.204Z,4.79
2023-05-19T10:41:52.193Z,4.69
2023-05-19T10:42:52.212Z,4.96
2023-05-19T10:43:52.261Z,4.82
2023-05-19T10:44:52.334Z,4.71
2023-05-19T10:45:52.378Z,3.99
2023-05-19T10:46:54.155Z,3.78
2023-05-19T10:47:52.461Z,4.43
2023-05-19T10:48:52.366Z,4.60
2023-05-19T10:49:52.409Z,4.77
2023-05-19T10:50:52.415Z,4.18
2023-05-19T10:51:52.335Z,3.65
2023-05-19T10:52:52.364Z,4.68
2023-05-19T10:53:52.313Z,4.73
2023-05-19T10:54:52.297Z,4.76
2023-05-19T10:55:52.343Z,4.69
2023-05-19T10:56:52.335Z,4.20
2023-05-19T10:57:52.360Z,4.04
2023-05-19T10:58:52.386Z,4.59
2023-05-19T10:59:52.285Z,4.25
2023-05-19T11:00:52.281Z,4.05
2023-05-19T11:01:52.351Z,4.20
2023-05-19T11:02:52.918Z,4.65
2023-05-19T11:03:52.455Z,4.23
2023-05-19T11:04:52.361Z,4.81
2023-05-19T11:05:52.287Z,4.83
2023-05-19T11:06:52.273Z,4.24
2023-05-19T11:07:52.238Z,3.86
2023-05-19T11:08:52.289Z,3.83
2023-05-19T11:09:52.204Z,4.59
2023-05-19T11:10:52.200Z,4.63
2023-05-19T11:11:52.297Z,3.44
2023-05-19T11:12:52.317Z,4.12
2023-05-19T11:13:52.246Z,3.33
2023-05-19T11:14:52.228Z,3.58
2023-05-19T11:15:52.191Z,4.12
2023-05-19T11:16:52.241Z,4.05
2023-05-19T11:17:52.306Z,4.55
2023-05-19T11:18:52.202Z,3.99
2023-05-19T11:19:52.160Z,3.17
2023-05-19T11:20:52.225Z,3.96
2023-05-19T11:21:52.153Z,3.40
2023-05-19T11:22:52.205Z,3.27
2023-05-19T11:23:52.156Z,4.13
2023-05-19T11:24:52.236Z,3.54
2023-05-19T11:27:11.089Z,3.20
2023-05-19T11:28:11.071Z,3.97
2023-05-19T11:29:11.020Z,3.51
2023-05-19T11:30:11.074Z,3.29
2023-05-19T11:34:51.096Z,3.94
2023-05-19T11:35:51.143Z,3.37
2023-05-19T11:38:14.464Z,2.60
2023-05-19T11:42:40.961Z,2.04
2023-05-19T11:43:27.998Z,4.05
2023-05-19T11:50:56.980Z,1.19
2023-05-19T11:51:46.649Z,4.44
2023-05-19T11:52:46.658Z,3.69
2023-05-19T11:55:05.791Z,3.77
2023-05-19T11:56:05.805Z,4.04
2023-05-19T11:57:05.953Z,3.95
2023-05-19T11:58:06.120Z,3.67
2023-05-19T11:59:05.701Z,3.89
2023-05-19T12:00:05.667Z,3.76
2023-05-19T12:01:05.602Z,3.41
2023-05-19T12:02:05.609Z,3.84
2023-05-19T12:03:05.951Z,3.80
2023-05-19T12:04:05.723Z,3.51
2023-05-19T12:05:05.711Z,3.13
2023-05-19T12:06:05.645Z,3.49
2023-05-19T12:07:05.613Z,2.96
2023-05-19T12:08:05.579Z,3.72
2023-05-19T12:09:05.579Z,3.55
2023-05-19T12:10:05.670Z,2.96
2023-05-19T12:11:05.561Z,2.75
2023-05-19T12:12:05.571Z,2.96
2023-05-19T12:13:05.542Z,3.16
2023-05-19T12:14:05.553Z,3.41
2023-05-19T12:15:05.549Z,3.18
2023-05-19T12:16:05.836Z,2.87
2023-05-19T12:17:05.509Z,3.36
2023-05-19T12:18:05.565Z,3.59
2023-05-19T12:21:15.207Z,3.12
2023-05-19T12:22:15.105Z,2.99
2023-05-19T12:23:15.125Z,3.26
2023-05-19T12:24:15.079Z,3.32
2023-05-19T12:30:16.337Z,3.00
2023-05-19T12:31:16.329Z,3.24
2023-05-19T12:32:16.272Z,2.63
2023-05-19T12:33:16.342Z,2.87
2023-05-19T12:34:16.265Z,3.09
2023-05-19T12:37:01.752Z,0.00
2023-05-19T12:45:59.801Z,1.19
2023-05-19T12:46:51.848Z,2.60
2023-05-19T12:50:54.737Z,1.19
2023-05-19T12:51:54.422Z,2.34
2023-05-19T12:52:54.383Z,2.38
2023-05-19T12:59:10.472Z,1.19
2023-05-19T13:01:29.786Z,2.41
2023-05-19T13:02:29.472Z,2.64
2023-05-19T13:03:29.496Z,2.07
2023-05-19T13:04:29.378Z,2.66
2023-05-19T13:05:29.363Z,2.18
2023-05-19T13:06:29.353Z,2.53
2023-05-19T13:11:16.993Z,0.13
2023-05-19T13:12:16.809Z,2.72
2023-05-19T13:13:16.839Z,1.98
2023-05-19T13:14:16.760Z,2.16
2023-05-19T13:17:22.331Z,0.00
2023-05-19T13:18:22.057Z,2.38
2023-05-19T13:19:25.720Z,2.12
2023-05-19T13:22:29.474Z,0.00
2023-05-19T13:23:21.898Z,2.52
2023-05-19T13:24:21.818Z,2.09
2023-05-19T13:25:21.813Z,2.67
2023-05-19T13:26:21.741Z,2.77
2023-05-19T13:27:21.735Z,2.58
2023-05-19T13:28:23.517Z,2.50
2023-05-19T13:29:22.063Z,2.86
2023-05-19T13:30:21.800Z,2.39
2023-05-19T13:31:21.796Z,2.50
2023-05-19T13:32:21.782Z,2.12
2023-05-19T13:33:21.840Z,2.43
2023-05-19T13:34:21.709Z,1.91
2023-05-19T13:35:21.703Z,2.30
2023-05-19T13:36:21.751Z,2.67
2023-05-19T13:37:21.784Z,2.55
2023-05-19T13:38:21.711Z,2.13
2023-05-19T13:39:21.749Z,2.32
2023-05-19T13:40:21.721Z,2.20
2023-05-19T13:41:21.751Z,2.32
2023-05-19T13:42:21.750Z,2.40
2023-05-19T13:51:32.406Z,2.70
2023-05-19T13:52:31.977Z,2.62
2023-05-19T13:56:50.395Z,3.10
2023-05-19T13:59:09.644Z,3.21
2023-05-19T14:00:09.431Z,2.76
2023-05-19T14:01:09.467Z,3.77
2023-05-19T14:02:09.564Z,2.62
2023-05-19T14:04:59.623Z,2.62
2023-05-19T14:07:18.017Z,2.79
2023-05-19T14:08:18.222Z,2.59
2023-05-19T14:09:17.913Z,2.69
2023-05-19T14:10:17.919Z,3.21
2023-05-19T14:11:17.926Z,2.66
2023-05-19T14:12:17.968Z,2.10
2023-05-19T14:13:32.535Z,2.27
2023-05-19T14:14:18.856Z,2.55
2023-05-19T14:15:17.857Z,2.41
2023-05-19T14:16:17.913Z,2.93
2023-05-19T14:17:18.564Z,2.54
2023-05-19T14:18:17.916Z,2.58
2023-05-19T14:19:17.876Z,2.40
2023-05-19T14:20:17.890Z,2.23
2023-05-19T14:21:18.338Z,2.50
2023-05-19T14:24:30.352Z,0.00
2023-05-19T14:27:24.249Z,0.00
2023-05-19T14:28:24.082Z,2.89
2023-05-19T14:30:43.452Z,3.06
2023-05-19T14:31:43.338Z,2.75
2023-05-19T14:34:02.707Z,2.25
2023-05-19T14:35:02.570Z,2.88
2023-05-19T14:36:02.718Z,2.89
2023-05-19T14:38:27.097Z,6.48
2023-05-19T14:50:38.198Z,2.59
2023-05-19T14:51:38.076Z,2.18
2023-05-19T14:52:38.088Z,2.40
2023-05-19T14:53:38.089Z,2.61
2023-05-19T14:54:38.902Z,3.61
2023-05-19T14:55:38.903Z,2.63
2023-05-19T14:56:38.332Z,3.17
2023-05-19T14:57:38.433Z,3.20
2023-05-19T14:58:38.130Z,2.96
2023-05-19T14:59:38.130Z,2.91
2023-05-19T15:00:38.025Z,3.09
2023-05-19T15:01:38.074Z,2.71
2023-05-19T15:02:38.084Z,2.58
2023-05-19T15:03:38.092Z,3.02
2023-05-19T15:04:38.023Z,3.01
2023-05-19T15:05:38.010Z,2.53
2023-05-19T15:09:19.857Z,3.11
2023-05-19T15:12:42.608Z,3.00
2023-05-19T15:16:08.253Z,0.00
2023-05-19T15:16:56.845Z,3.21
2023-05-19T15:17:55.891Z,2.66
2023-05-19T15:18:55.914Z,3.11
2023-05-19T15:19:55.906Z,3.18
2023-05-19T15:20:55.803Z,3.24
2023-05-19T15:26:37.962Z,0.47
2023-05-19T15:27:37.728Z,3.56
2023-05-19T15:28:37.716Z,3.32
2023-05-19T15:29:37.689Z,3.58
2023-05-19T15:30:37.873Z,3.61
2023-05-19T15:31:38.475Z,3.58
2023-05-19T15:32:37.778Z,3.48
2023-05-19T15:33:37.985Z,3.53
2023-05-19T15:36:47.198Z,3.46
2023-05-19T15:42:30.248Z,3.74
2023-05-19T15:43:29.509Z,3.87
2023-05-19T15:44:29.513Z,3.86
2023-05-19T15:45:29.439Z,4.00
2023-05-19T15:46:29.786Z,4.64
2023-05-19T15:47:29.685Z,4.15
2023-05-19T15:49:48.741Z,4.35
2023-05-19T15:56:50.356Z,4.95
2023-05-19T15:57:50.289Z,5.08
2023-05-19T16:00:09.771Z,8.86
2023-05-19T16:05:04.955Z,1.19
2023-05-19T16:07:10.643Z,5.23
2023-05-19T16:08:10.645Z,4.97
2023-05-19T16:09:10.616Z,5.18
2023-05-19T16:12:11.995Z,1.19
2023-05-19T16:13:11.921Z,5.05
2023-05-19T16:14:12.010Z,5.17
2023-05-19T16:17:01.379Z,5.77
2023-05-19T16:18:00.508Z,5.48
2023-05-19T16:19:00.326Z,4.42
2023-05-19T16:27:37.270Z,2.04
2023-05-19T16:28:36.985Z,6.03
2023-05-19T16:29:36.990Z,5.82
2023-05-19T16:30:37.521Z,5.58
2023-05-19T16:32:56.436Z,5.36
2023-05-19T16:35:40.177Z,0.00
2023-05-19T16:36:40.083Z,5.76
2023-05-19T16:39:37.578Z,1.19
2023-05-19T16:41:55.515Z,5.80
2023-05-19T16:42:55.415Z,6.07
2023-05-19T16:43:55.320Z,6.11
2023-05-19T16:46:47.262Z,5.61
2023-05-19T16:51:24.570Z,6.48
2023-05-19T16:52:12.074Z,5.79
2023-05-19T16:54:31.448Z,5.86
2023-05-19T16:55:31.617Z,6.00
2023-05-19T17:00:29.524Z,5.73
2023-05-19T17:01:29.625Z,6.01
2023-05-19T17:02:29.672Z,6.19
2023-05-19T17:03:29.773Z,6.20
2023-05-19T17:04:30.763Z,6.31
2023-05-19T17:05:30.247Z,5.40
2023-05-19T17:06:29.479Z,5.55
2023-05-19T17:07:29.456Z,5.78
2023-05-19T17:08:29.508Z,5.68
2023-05-19T17:09:29.437Z,6.87
2023-05-19T17:10:29.422Z,5.82
2023-05-19T17:11:29.495Z,5.80
2023-05-19T17:12:29.426Z,5.93
2023-05-19T17:13:29.417Z,6.67
2023-05-19T17:14:29.397Z,6.19
2023-05-19T17:15:29.405Z,6.44
2023-05-19T17:16:29.444Z,6.37
2023-05-19T17:17:29.424Z,5.82
2023-05-19T17:18:29.345Z,5.65
2023-05-19T17:19:29.406Z,6.14
2023-05-19T17:20:29.464Z,6.22
2023-05-19T17:21:29.364Z,5.61
2023-05-19T17:22:30.327Z,5.35
2023-05-19T17:23:29.450Z,5.69
2023-05-19T17:24:29.353Z,5.64
2023-05-19T17:25:29.370Z,6.19
2023-05-19T17:26:29.328Z,6.69
2023-05-19T17:27:29.309Z,7.10
2023-05-19T17:28:29.326Z,5.97
2023-05-19T17:29:29.325Z,6.96
2023-05-19T17:30:29.313Z,6.94
2023-05-19T17:31:29.324Z,6.20
2023-05-19T17:32:30.089Z,6.64
2023-05-19T17:34:49.408Z,7.50
2023-05-19T17:44:02.403Z,0.09
2023-05-19T17:45:01.982Z,7.93
2023-05-19T17:51:53.253Z,0.00
2023-05-19T17:56:45.991Z,8.20
2023-05-19T17:57:45.909Z,7.61
2023-05-19T17:58:45.906Z,8.25
2023-05-19T18:01:33.665Z,3.75
2023-05-19T18:02:33.444Z,7.74
2023-05-19T18:03:33.631Z,7.75
2023-05-19T18:04:33.346Z,7.75
2023-05-19T18:06:52.945Z,7.71
2023-05-19T18:07:52.764Z,7.48
2023-05-19T18:08:52.818Z,7.36
2023-05-19T18:12:33.164Z,3.75
2023-05-19T18:13:32.991Z,7.95
2023-05-19T18:20:17.171Z,2.59
2023-05-19T18:21:16.989Z,8.55
2023-05-19T18:22:16.971Z,8.78
2023-05-19T18:30:26.811Z,4.53
2023-05-19T18:32:44.823Z,8.42
2023-05-19T18:33:44.693Z,8.26
2023-05-19T18:34:44.649Z,8.48
2023-05-19T18:35:44.634Z,7.94
2023-05-19T18:38:36.856Z,2.74
2023-05-19T18:39:36.696Z,8.16
2023-05-19T18:40:37.285Z,8.21
2023-05-19T18:41:36.711Z,8.78
2023-05-19T18:50:03.317Z,6.65
2023-05-19T18:53:34.144Z,8.76
2023-05-19T18:54:33.682Z,8.22
2023-05-19T18:59:42.640Z,8.14
2023-05-19T19:07:13.668Z,3.61
2023-05-19T19:08:13.375Z,8.97
2023-05-19T19:10:33.318Z,8.12
2023-05-19T19:11:33.149Z,8.50
2023-05-19T19:12:33.107Z,8.04
2023-05-19T19:14:52.691Z,8.92
2023-05-19T19:17:41.570Z,4.99
2023-05-19T19:20:00.787Z,9.03
2023-05-19T19:21:01.080Z,9.36
2023-05-19T19:22:00.672Z,8.96
2023-05-19T19:23:00.628Z,9.04
2023-05-19T19:24:00.581Z,8.64
2023-05-19T19:25:00.591Z,8.51
2023-05-19T19:26:00.670Z,7.87
2023-05-19T19:27:00.593Z,8.52
2023-05-19T19:28:00.595Z,8.15
2023-05-19T19:29:00.645Z,7.90
2023-05-19T19:30:00.614Z,8.90
2023-05-19T19:31:00.609Z,8.31
2023-05-19T19:32:00.733Z,8.85
2023-05-19T19:33:00.563Z,8.06
2023-05-19T19:34:00.534Z,8.28
2023-05-19T19:35:00.546Z,8.22
2023-05-19T19:36:00.532Z,8.56
2023-05-19T19:37:00.571Z,9.49
2023-05-19T19:38:00.570Z,8.64
2023-05-19T19:39:00.537Z,8.31
2023-05-19T19:40:00.577Z,8.36
2023-05-19T19:41:00.480Z,8.05
2023-05-19T19:42:00.495Z,8.93
2023-05-19T19:43:00.489Z,8.47
2023-05-19T19:44:00.491Z,8.70
2023-05-19T19:45:00.466Z,7.41
2023-05-19T19:46:00.871Z,8.64
2023-05-19T19:47:00.415Z,8.06
2023-05-19T19:48:00.466Z,8.58
2023-05-19T19:49:00.471Z,8.42
2023-05-19T19:50:01.302Z,8.05
2023-05-19T19:51:00.405Z,8.31
2023-05-19T19:52:00.386Z,8.14
2023-05-19T19:53:00.378Z,7.92
2023-05-19T19:54:00.369Z,7.65
2023-05-19T19:55:00.512Z,7.94
2023-05-19T19:56:01.319Z,7.27
2023-05-19T19:57:00.385Z,8.38
2023-05-19T19:58:00.401Z,8.07
2023-05-19T19:59:00.386Z,8.27
2023-05-19T20:00:00.402Z,8.35
2023-05-19T20:01:00.418Z,8.15
2023-05-19T20:02:00.480Z,9.49
2023-05-19T20:03:04.234Z,7.95
2023-05-19T20:06:39.327Z,9.25
2023-05-19T20:07:39.249Z,8.89
2023-05-19T20:12:27.900Z,9.68
2023-05-19T20:13:28.576Z,9.82
2023-05-19T20:14:27.693Z,9.07
2023-05-19T20:17:22.464Z,6.81
2023-05-19T20:18:22.154Z,10.04
2023-05-19T20:19:22.311Z,9.62
2023-05-19T20:20:22.243Z,9.41
2023-05-19T20:21:22.133Z,8.86
2023-05-19T20:22:22.123Z,9.76
2023-05-19T20:23:22.081Z,8.35
2023-05-19T20:28:14.468Z,1.81
2023-05-19T20:29:14.292Z,9.27
2023-05-19T20:32:05.711Z,6.48
2023-05-19T20:34:25.058Z,9.96
2023-05-19T20:35:25.016Z,8.93
2023-05-19T20:36:25.003Z,9.09
2023-05-19T20:37:25.561Z,9.81
2023-05-19T20:38:24.834Z,9.17
2023-05-19T20:39:24.847Z,8.44
2023-05-19T20:40:24.849Z,8.52
2023-05-19T20:41:24.797Z,9.13
2023-05-19T20:42:24.800Z,8.74
2023-05-19T20:43:24.813Z,9.25
2023-05-19T20:44:24.763Z,9.97
2023-05-19T20:45:24.872Z,8.42
2023-05-19T20:46:24.854Z,8.55
2023-05-19T20:47:24.832Z,9.46
2023-05-19T20:48:24.733Z,9.51
2023-05-19T20:49:24.724Z,9.12
2023-05-19T20:50:25.030Z,9.65
2023-05-19T20:51:24.826Z,9.31
2023-05-19T20:52:24.742Z,8.60
2023-05-19T20:53:24.819Z,8.81
2023-05-19T20:54:24.786Z,8.91
2023-05-19T20:55:24.743Z,9.39
2023-05-19T20:56:24.725Z,9.20
2023-05-19T20:57:25.622Z,8.73
2023-05-19T20:58:24.779Z,8.41
2023-05-19T20:59:24.823Z,8.70
2023-05-19T21:00:24.879Z,8.94
2023-05-19T21:01:24.953Z,10.20